Tiempo atmosférico en la estación meteorológica de Jerez De Los Caballeros, Badajoz (381 m.)



Fecha
DESCASC
Temp. máxima en grados centígrados (hora)
DESCASC
Temp. mínima en grados centígrados (hora)
DESCASC
Temp. media en grados centígrados
DESCASC
Racha de viento máxima en m/sg (hora)
DESCASC
Velocidad máxima media en intervalos de 10 minutos(hora)
DESCASC
Precipitaciones diarias en mm
DESCASC
Precipitaciones de 00:00 a 06:00 en mm
DESCASC
Precipitaciones de 06:00 a 12:00 en mm
DESCASC
Precipitaciones de 12:00 a 18:00 en mm
DESCASC
Precipitaciones de 18:00 a 24:00 en mm
DESCASC
25-01-2020 14 (14:20) 7.6 (23:00) 10.8 5.56 (14:30) 3.89 (11:00) 1.6 0 0 0.8 0.8
24-01-2020 11.7 (15:30) 8.2 (07:50) 9.9 10.28 (21:30) 7.78 (18:20) 5.4 0.4 0 1 4
23-01-2020 12.1 (16:40) 7.7 (00:00) 9.9 10.28 (13:30) 6.67 (13:30) 0.6 0 0.6 0 0
22-01-2020 8.4 (00:00) 5.9 (00:00) 7.1 9.72 (05:50) 7.22 (11:10) 4.6 0 0 3 1.6
21-01-2020 10.8 (13:20) 5.7 (00:00) 8.3 16.67 (00:10) 12.5 (00:10) 0 0 0 0 0
20-01-2020 8.6 (13:20) 4.3 (00:00) 6.5 22.78 (12:40) 15.28 (13:50) 0 0 0 0 0
19-01-2020 12.7 (15:50) 7.7 (00:00) 10.2 17.5 (23:20) 11.94 (14:10) 0.4 0.4 0 0 0
18-01-2020 16.1 (16:50) 7.6 (00:00) 11.9 13.89 (21:20) 10 (21:20) 13 0.2 10 2.8 0
17-01-2020 16.7 (16:20) 8.1 (00:00) 12.4 7.78 (00:50) 5.83 (00:40) 0.8 0.8 0 0 0
16-01-2020 17 (15:10) 6.3 (00:00) 11.7 12.22 (16:20) 8.33 (14:00) 0.8 0 0 0 0.8
15-01-2020 15 (15:00) 9.4 (00:00) 12.2 12.22 (12:40) 7.78 (13:40) 0 0 0 0 0
14-01-2020 11.1 (17:30) -0.4 (00:00) 5.4 8.33 (21:50) 4.44 (19:00) 0 0 0 0 0
13-01-2020 14.1 (15:10) -1.3 (-00:0) 6.4 8.06 (14:50) 5.56 (14:30) 0 0 0 0 0
12-01-2020 15.4 (15:20) -0.4 (00:00) 7.5 6.67 (15:10) 4.44 (17:00) 0 0 0 0 0
11-01-2020 12.9 (16:20) 0.8 (00:00) 6.8 8.61 (14:40) 5.83 (14:40) 0 0 0 0 0
10-01-2020 12 (16:20) 4.4 (00:00) 8.2 10.56 (11:50) 7.78 (14:10) 0 0 0 0 0
09-01-2020 15.3 (16:10) 0 (00:00) 7.7 6.67 (16:30) 5 (17:00) 0 0 0 0 0
08-01-2020 18 (15:40) 1.2 (00:00) 9.6 4.72 (16:40) 3.89 (16:50) 0 0 0 0 0
07-01-2020 17.7 (15:40) 1.7 (00:00) 9.7 6.11 (09:50) 5 (09:50) 0 0 0 0 0
06-01-2020 16.6 (16:50) 1 (00:00) 8.8 6.39 (18:40) 3.89 (23:10) 0 0 0 0 0
05-01-2020 13.8 (15:10) 2.4 (00:00) 8.1 6.67 (14:30) 5 (12:40) 0 0 0 0 0
04-01-2020 13 (15:20) 3.1 (00:00) 8 10.28 (14:10) 8.33 (14:20) 0 0 0 0 0
03-01-2020 13.5 (15:00) 6.7 (00:00) 10.1 6.39 (16:50) 3.61 (16:20) 0 0 0 0 0
02-01-2020 15.3 (14:50) 2.6 (00:00) 9 6.67 (15:00) 5 (15:10) 0 0 0 0 0
01-01-2020 17 (16:00) 1.1 (00:00) 9.1 5 (16:10) 3.33 (16:20) 0 0 0 0 0
31-12-2019 18 (16:20) 1.8 (00:00) 9.9 4.44 (03:40) 3.89 (03:50) 0 0 0 0 0
30-12-2019 18.2 (16:20) 2.1 (00:00) 10.2 4.17 (00:40) 2.78 (02:00) 0 0 0 0 0
29-12-2019 20 (15:30) 6.1 (00:00) 13 6.67 (01:10) 5 (01:20) 0 0 0 0 0
28-12-2019 20.7 (16:00) 6.7 (00:00) 13.7 7.5 (23:20) 6.11 (06:30) 0 0 0 0 0

Gráficas

Temp. máximas Temp. mínimas Temp. medias Precipitaciones Rachas de viento máximas Velocidades máximas media en intervalos de 10 minutos

Datos horarios

Fecha y hora oficial Temperatura (ºC) Velocidad del viento (km/h) Dirección del viento Racha (km/h) Dirección de racha Precipitación (mm) Presión (hPa) Tendencia (hPa) Humedad (%)
2020-01-26 23:00:00 7.3 3 Sur 5 Este 0 981.8 0.7 86
2020-01-26 22:00:00 8 2 Norte 6 Nordeste 0 981.6 1 85
2020-01-26 21:00:00 8.9 4 Nordeste 6 Este 0 981.4 1.2 81
2020-01-26 20:00:00 10.2 2 Noroeste 12 Oeste 0 981.1 1.1 77
2020-01-26 19:00:00 10.3 9 Oeste 14 Oeste 0 980.6 0.7 73
2020-01-26 18:00:00 12.1 11 Oeste 21 Oeste 0 980.2 0.3 65
2020-01-26 17:00:00 13.4 12 Oeste 25 Sudoeste 0 980 -0.7 58
2020-01-26 16:00:00 13.5 11 Oeste 24 Oeste 0 979.9 -1.5 62
2020-01-26 15:00:00 12.3 6 Oeste 12 Sudoeste 0 979.9 -1.8 69
2020-01-26 14:00:00 11.1 4 Sudoeste 9 Sudoeste 0 980.7 -0.4 91
2020-01-26 13:00:00 9.2 3 Sudoeste 9 Sudoeste 0 981.4 1.1 93
2020-01-26 12:00:00 7.1 5 Sudoeste 11 Oeste 0 981.7 2.2 93
2020-01-26 11:00:00 6.1 4 Oeste 10 Sudoeste 0 981.1 2.4 93
2020-01-26 10:00:00 6.2 2 Sudeste 7 Este 0 980.3 2.2 93
2020-01-26 09:00:00 5.9 3 Sur 6 Sudeste 0 979.5 1.9 93
2020-01-26 08:00:00 6.1 2 Sudoeste 10 Oeste 0 978.7 1.5 93
2020-01-26 07:00:00 6.2 5 Oeste 14 Oeste 0 978.1 1.2 93
2020-01-26 06:00:00 6.3 8 Oeste 12 Oeste 0.2 977.6 1 93
2020-01-26 05:00:00 6.5 8 Oeste 15 Oeste 0 977.2 0.8 93
2020-01-26 04:00:00 6.1 11 Oeste 15 Noroeste 0 976.9 0.6 93
2020-01-26 03:00:00 6.1 7 Sudoeste 13 Sudoeste 0 976.6 0.8 92
2020-01-26 02:00:00 6.4 5 Sur 12 Sudoeste 0 976.4 1.2 91
2020-01-26 01:00:00 6.8 7 Sudoeste 9 Sudoeste 0 976.3 1.7 90
2020-01-26 00:00:00 7.7 6 Sudoeste 9 Oeste 0 975.8 1.7 89
2020-01-25 23:00:00 7.6 8 Oeste 11 Oeste 0 975.2 1.8 90
2020-01-25 22:00:00 8.5 2 Norte 6 Oeste 0 974.6 2 90
2020-01-25 21:00:00 9.1 4 Sudoeste 9 Noroeste 0 974.1 2.3 90
2020-01-25 20:00:00 9.3 7 Sudoeste 19 Oeste 0.8 973.4 2 90
2020-01-25 19:00:00 9.5 2 Sudoeste 7 Sudeste 0 972.6 1.8 88
2020-01-25 18:00:00 9.7 8 Sudeste 10 Sudeste 0 971.8 1.2 88
2020-01-25 17:00:00 9.6 8 Este 13 Sudeste 0.4 971.4 0.5 89
2020-01-25 16:00:00 10.1 8 Sudeste 17 Noroeste 0 970.8 -0.6 82
2020-01-25 15:00:00 10.2 12 Norte 20 Oeste 0.4 970.6 -1.2 78
2020-01-25 14:00:00 13.1 8 Sudoeste 13 Sudoeste 0 970.9 -0.5 69
2020-01-25 13:00:00 12.3 2 Este 8 Oeste 0 971.4 0.4 71
2020-01-25 12:00:00 11.2 7 Nordeste 17 Este 0 971.8 1.4 80
2020-01-25 11:00:00 10.1 14 Este 17 Nordeste 0 971.4 1.4 82
2020-01-25 10:00:00 9.3 8 Nordeste 12 Nordeste 0 971 1.3 85
2020-01-25 09:00:00 8.8 7 Nordeste 10 Nordeste 0 970.4 0.7 85
2020-01-25 08:00:00 8.6 5 Nordeste 13 Este 0 970 0.1 85
2020-01-25 07:00:00 8.3 7 Este 10 Este 0 969.7 -0.4 85
2020-01-25 06:00:00 8.5 6 Nordeste 13 Nordeste 0 969.7 -0.6 84
2020-01-25 05:00:00 8.3 5 Norte 13 Sur 0 969.9 -0.4 85
2020-01-25 04:00:00 9 8 Sur 14 Sur 0 970.1 -0.5 84
2020-01-25 03:00:00 9.2 6 Sudoeste 18 Sur 0 970.3 -0.3 85
2020-01-25 02:00:00 9.2 8 Sudoeste 14 Sudoeste 0 970.3 -0.2 87
2020-01-25 01:00:00 8.9 5 Oeste 12 Oeste 0 970.6 0.3 88
2020-01-25 00:00:00 8.8 4 Noroeste 10 Sur 0.4 970.6 0.1 89
2020-01-24 23:00:00 8.7 4 Este 29 Nordeste 0.2 970.5 -0.3 89
2020-01-24 22:00:00 8.6 26 Nordeste 37 Nordeste 1.2 970.3 -0.4 88
2020-01-24 21:00:00 8.7 25 Nordeste 34 Nordeste 0.6 970.5 -0.1 87
2020-01-24 20:00:00 8.8 20 Nordeste 29 Nordeste 0.6 970.8 -0.2 84
2020-01-24 19:00:00 9.5 21 Este 35 Este 1 970.7 -0.8 87
2020-01-24 18:00:00 9.9 24 Nordeste 30 Este 0.8 970.6 -1.5 88
2020-01-24 17:00:00 10.5 22 Este 33 Este 0.2 971 -2 83
2020-01-24 16:00:00 11.6 17 Este 27 Este 0 971.5 -2.1 76
2020-01-24 15:00:00 11.4 17 Este 29 Este 0 972.1 -1.9 75
2020-01-24 14:00:00 11.4 18 Este 36 Sudeste 0 973 -1.1 73
2020-01-24 13:00:00 11.2 22 Este 32 Sudeste 0 973.6 -0.3 76
2020-01-24 12:00:00 11.4 21 Este 29 Este 0 974 0.8 76
2020-01-24 11:00:00 10.1 12 Este 21 Este 0 974.1 1.2 84
2020-01-24 10:00:00 9.2 13 Nordeste 24 Nordeste 0 973.9 1 84
2020-01-24 09:00:00 8.6 17 Nordeste 27 Nordeste 0 973.2 0.3 86
2020-01-24 08:00:00 8.4 16 Nordeste 22 Nordeste 0 972.9 0.2 84
2020-01-24 07:00:00 8.6 10 Este 16 Este 0 972.9 0 83
2020-01-24 06:00:00 8.9 4 Nordeste 19 Nordeste 0 972.9 0 83
2020-01-24 05:00:00 8.6 13 Nordeste 19 Este 0 972.7 -0.3 84
2020-01-24 04:00:00 9.1 15 Nordeste 18 Nordeste 0 972.9 -0.1 83
2020-01-24 03:00:00 9.3 4 Nordeste 10 Este 0 972.9 0.2 83
2020-01-24 02:00:00 9.3 7 Nordeste 11 Nordeste 0 973 0.5 85
2020-01-24 01:00:00 9.2 4 Nordeste 12 Este 0.4 973 0.9 84
2020-01-24 00:00:00 9.1 10 Este 13 Sudeste 0 972.7 1 82
2020-01-23 23:00:00 9.4 8 Este 22 Este 0 972.5 1.3 80
2020-01-23 22:00:00 9.4 10 Este 17 Nordeste 0 972.1 1.7 79
2020-01-23 21:00:00 9.6 12 Este 22 Nordeste 0 971.7 1.6 80
2020-01-23 20:00:00 9.3 12 Nordeste 26 Sudeste 0 971.2 1.2 78
2020-01-23 19:00:00 10 11 Este 26 Este 0 970.4 0.8 73
2020-01-23 18:00:00 10.7 7 Sudeste 29 Sudeste 0 970.1 0.5 71
2020-01-23 17:00:00 11.8 7 Sudeste 32 Sudeste 0 970 0.1 67
2020-01-23 16:00:00 11.1 11 Sudeste 32 Sudeste 0 969.6 -0.9 72
2020-01-23 15:00:00 10.8 10 Sudeste 29 Sudeste 0 969.6 -1 73
2020-01-23 14:00:00 10.2 17 Este 37 Sudeste 0 969.9 -0.6 77
2020-01-23 13:00:00 10.3 10 Sudeste 31 Sudeste 0 970.5 0.4 78
2020-01-23 12:00:00 9.8 15 Este 30 Este 0 970.6 0.9 77
2020-01-23 11:00:00 9.1 14 Nordeste 27 Este 0.2 970.5 1 84
2020-01-23 10:00:00 8.6 17 Nordeste 27 Nordeste 0.4 970.1 1.1 86
2020-01-23 09:00:00 8.7 17 Este 25 Este 0 969.7 0.7 82
2020-01-23 08:00:00 8.6 8 Nordeste 20 Este 0 969.5 0.4 81
2020-01-23 07:00:00 8.7 10 Nordeste 21 Nordeste 0 969 -0.6 78
2020-01-23 06:00:00 8.4 8 Nordeste 19 Este 0 969 -0.5 82
2020-01-23 05:00:00 8.4 15 Nordeste 26 Este 0 969.1 -0.7 82
2020-01-23 04:00:00 8.4 11 Este 24 Nordeste 0 969.6 -0.3 81
2020-01-23 03:00:00 8.2 16 Este 24 Este 0 969.5 -0.4 82
2020-01-23 02:00:00 8.2 14 Este 23 Este 0 969.8 -0.1 82
2020-01-23 01:00:00 7.8 17 Nordeste 24 Nordeste 0 969.9 0 84
2020-01-23 00:00:00 7.7 19 Nordeste 28 Nordeste 0 969.9 -0.1 84
2020-01-22 23:00:00 7.7 17 Nordeste 27 Nordeste 0 969.9 0.1 82
2020-01-22 22:00:00 7.8 20 Nordeste 31 Nordeste 0 969.9 0.4 84
2020-01-22 21:00:00 7.7 15 Nordeste 19 Nordeste 0.2 970 0.7 88
2020-01-22 20:00:00 7.4 6 Nordeste 9 Nordeste 1.2 969.8 0.5 90
2020-01-22 19:00:00 7.4 5 Este 7 Norte 0.2 969.5 0.1 89
2020-01-22 18:00:00 7.6 7 Nordeste 10 Nordeste 0.6 969.3 -0.3 86
2020-01-22 17:00:00 7.5 5 Nordeste 15 Este 0.6 969.3 -0.5 86
2020-01-22 16:00:00 7.6 12 Este 15 Nordeste 0.4 969.4 -0.9 85
2020-01-22 15:00:00 7.8 11 Este 15 Este 1 969.6 -1 87
2020-01-22 14:00:00 7.6 13 Nordeste 20 Este 0.4 969.8 -0.4 85
2020-01-22 13:00:00 7.9 18 Este 30 Este 0 970.3 0.5 80
2020-01-22 12:00:00 7.5 21 Nordeste 31 Nordeste 0 970.6 1.1 79
2020-01-22 11:00:00 7.4 24 Nordeste 31 Nordeste 0 970.2 0.9 81
2020-01-22 10:00:00 6.6 21 Nordeste 31 Nordeste 0 969.8 0.8 84
2020-01-22 09:00:00 6.1 22 Nordeste 30 Nordeste 0 969.5 0.8 85
2020-01-22 08:00:00 6 16 Este 29 Nordeste 0 969.3 0.3 84
2020-01-22 07:00:00 6.4 17 Nordeste 32 Nordeste 0 969 -0.5 80
2020-01-22 06:00:00 6.8 25 Nordeste 35 Nordeste 0 968.7 -0.8 76
2020-01-22 05:00:00 7 20 Nordeste 25 Nordeste 0 969 -0.5 74
2020-01-22 04:00:00 7.2 15 Nordeste 26 Nordeste 0 969.5 -0.3 73
2020-01-22 03:00:00 7.3 19 Nordeste 28 Nordeste 0 969.5 0 72
2020-01-22 02:00:00 7.5 16 Nordeste 29 Nordeste 0 969.5 0.5 72
2020-01-22 01:00:00 7.8 22 Este 29 Este 0 969.8 0.9 70
2020-01-22 00:00:00 8.4 21 Nordeste 30 Nordeste 0 969.5 1 65
2020-01-21 23:00:00 7 17 Este 32 Nordeste 0 969 -0.2 72
2020-01-21 22:00:00 8.1 22 Nordeste 40 Nordeste 0 968.9 0.3 64
2020-01-21 21:00:00 8.5 30 Nordeste 46 Nordeste 0 968.5 0.4 63
2020-01-21 20:00:00 8.9 29 Nordeste 50 Nordeste 0 969.2 1.2 63
2020-01-21 19:00:00 9.1 29 Nordeste 42 Nordeste 0 968.6 0.6 60
2020-01-21 18:00:00 9.6 27 Nordeste 46 Nordeste 0 968.1 -0.6 58
2020-01-21 17:00:00 9.7 28 Nordeste 44 Nordeste 0 968 -1.7 56
2020-01-21 16:00:00 10.2 29 Nordeste 48 Nordeste 0 968 -2.3 53
2020-01-21 15:00:00 9.9 25 Nordeste 39 Nordeste 0 968.7 -2 55
2020-01-21 14:00:00 9.9 25 Nordeste 51 Este 0 969.7 -1.3 53
2020-01-21 13:00:00 10.4 22 Nordeste 51 Nordeste 0 970.3 -0.3 50
2020-01-21 12:00:00 9.2 40 Nordeste 55 Nordeste 0 970.7 -0.4 52
2020-01-21 11:00:00 8 34 Nordeste 51 Nordeste 0 971 0.3 54
2020-01-21 10:00:00 7.1 44 Nordeste 59 Nordeste 0 970.6 -0.1 58
2020-01-21 09:00:00 5.7 36 Nordeste 58 Nordeste 0 971.1 0.3 63
2020-01-21 08:00:00 5.8 36 Nordeste 48 Nordeste 0 970.7 -0.5 62
2020-01-21 07:00:00 6.2 37 Nordeste 55 Nordeste 0 970.7 -0.6 59
2020-01-21 06:00:00 6.2 32 Nordeste 50 Nordeste 0 970.8 -0.8 59
2020-01-21 05:00:00 6.5 30 Nordeste 53 Nordeste 0 971.2 -0.7 58
2020-01-21 04:00:00 6.6 33 Nordeste 55 Nordeste 0 971.3 -0.9 59
2020-01-21 03:00:00 6.9 33 Nordeste 44 Nordeste 0 971.6 -0.3 59
2020-01-21 02:00:00 7.1 34 Nordeste 55 Nordeste 0 971.9 -0.1 57
2020-01-21 01:00:00 7 42 Nordeste 60 Nordeste 0 972.2 -0.4 57
2020-01-21 00:00:00 6.7 46 Nordeste 60 Nordeste 0 971.9 -0.9 57
2020-01-20 23:00:00 6.6 44 Nordeste 57 Nordeste 0 972 0.6 57
2020-01-20 22:00:00 6.4 31 Nordeste 44 Nordeste 0 972.6 1.2 58
2020-01-20 21:00:00 5.9 31 Nordeste 56 Nordeste 0 972.8 2.3 60
2020-01-20 20:00:00 6.1 52 Nordeste 67 Nordeste 0 971.4 0.4 59
2020-01-20 19:00:00 6.5 48 Nordeste 71 Nordeste 0 971.4 0.1 57
2020-01-20 18:00:00 7.4 47 Nordeste 63 Nordeste 0 970.5 -1.2 52
2020-01-20 17:00:00 7.7 41 Nordeste 62 Nordeste 0 971 -0.9 51
2020-01-20 16:00:00 8.1 41 Nordeste 72 Nordeste 0 971.3 -1.8 50
2020-01-20 15:00:00 7.6 46 Nordeste 71 Nordeste 0 971.7 -2.1 49
2020-01-20 14:00:00 8 53 Nordeste 73 Nordeste 0 971.9 -1.9 42
2020-01-20 13:00:00 8.2 47 Nordeste 82 Nordeste 0 973.1 -1 37
2020-01-20 12:00:00 7.7 44 Nordeste 64 Nordeste 0 973.8 -0.6 32
2020-01-20 11:00:00 6.1 41 Nordeste 61 Nordeste 0 973.8 -0.6 38
2020-01-20 10:00:00 4.6 29 Nordeste 42 Norte 0 974.1 -0.2 45
2020-01-20 09:00:00 4.6 12 Nordeste 34 Norte 0 974.4 -0.2 44
2020-01-20 08:00:00 4.7 12 Nordeste 27 Nordeste 0 974.4 -0.6 44
2020-01-20 07:00:00 4.8 15 Norte 38 Nordeste 0 974.3 -1.2 44
2020-01-20 06:00:00 5.1 21 Norte 34 Norte 0 974.6 -0.7 42
2020-01-20 05:00:00 6 25 Nordeste 46 Nordeste 0 975 -1.2 38
2020-01-20 04:00:00 6.4 26 Nordeste 59 Nordeste 0 975.5 -0.9 34
2020-01-20 03:00:00 6.8 38 Nordeste 61 Nordeste 0 975.3 -0.7 35
2020-01-20 02:00:00 7.3 33 Nordeste 55 Nordeste 0 976.2 0.6 33
2020-01-20 01:00:00 7.4 33 Nordeste 55 Nordeste 0 976.4 1.2 36
2020-01-20 00:00:00 8 35 Nordeste 63 Norte 0 976 0.8 35
2020-01-19 23:00:00 7.7 38 Norte 57 Norte 0 975.6 0.6 40
2020-01-19 22:00:00 8.1 39 Norte 60 Norte 0 975.2 0.1 43
2020-01-19 21:00:00 8.9 35 Norte 55 Norte 0 975.2 0.1 42
2020-01-19 20:00:00 9.7 32 Norte 49 Norte 0 975 -0.1 42
2020-01-19 19:00:00 10.4 26 Norte 47 Norte 0 975.1 0.1 45
2020-01-19 18:00:00 11.2 25 Norte 49 Norte 0 975.1 -0.1 48
2020-01-19 17:00:00 12 34 Norte 56 Norte 0 975.1 -0.4 46
2020-01-19 16:00:00 12.4 28 Norte 47 Norte 0 975 -1.8 50
2020-01-19 15:00:00 12.3 38 Norte 62 Norte 0 975.2 -2.1 51
2020-01-19 14:00:00 12 40 Norte 61 Norte 0 975.5 -2.3 53
2020-01-19 13:00:00 11.5 33 Norte 52 Norte 0 976.8 -1.1 61
2020-01-19 12:00:00 10.7 35 Norte 56 Norte 0 977.3 0 64
2020-01-19 11:00:00 10 24 Noroeste 41 Noroeste 0 977.8 0.9 69
2020-01-19 10:00:00 9.1 14 Noroeste 31 Norte 0 977.9 0.9 78
2020-01-19 09:00:00 8.5 14 Noroeste 30 Noroeste 0 977.3 0 81
2020-01-19 08:00:00 8.4 14 Noroeste 35 Oeste 0 976.9 -0.9 86
2020-01-19 07:00:00 8.3 18 Oeste 28 Oeste 0 977 -1.5 88
2020-01-19 06:00:00 8.2 17 Oeste 31 Oeste 0 977.3 -1.9 88
2020-01-19 05:00:00 8.3 19 Oeste 31 Sudoeste 0 977.8 -1.7 86
2020-01-19 04:00:00 8.2 16 Sudoeste 22 Sudoeste 0 978.5 -0.5 86
2020-01-19 03:00:00 8.5 8 Oeste 22 Oeste 0 979.2 -1 85
2020-01-19 02:00:00 9.2 15 Oeste 43 Oeste 0.4 979.5 -0.7 84
2020-01-19 01:00:00 10.5 30 Oeste 45 Oeste 0 979 -1.4 85
2020-01-19 00:00:00 11 19 Oeste 35 Oeste 0 980.2 0.2 84
2020-01-18 23:00:00 11.2 21 Sudoeste 47 Oeste 0 980.2 0.1 82
2020-01-18 22:00:00 12.1 33 Oeste 50 Sudoeste 0 980.4 0.1 81
2020-01-18 21:00:00 12.7 32 Sudoeste 41 Sudoeste 0 980 -0.5 89
2020-01-18 20:00:00 13 23 Sudoeste 32 Sudoeste 0 980.1 -0.8 88
2020-01-18 19:00:00 13.8 21 Sudoeste 27 Sudoeste 0 980.3 -0.7 89
2020-01-18 18:00:00 14.8 19 Sudoeste 26 Sudoeste 0 980.5 -0.7 88
2020-01-18 17:00:00 15.4 16 Sudoeste 23 Sudoeste 0 980.9 -0.7 87
2020-01-18 16:00:00 15.7 18 Sudoeste 41 Sudoeste 0 981 -1.8 87
2020-01-18 15:00:00 14.5 25 Sudoeste 37 Sudoeste 0.6 981.2 -2.4 92
2020-01-18 14:00:00 14.2 25 Sudoeste 38 Sudoeste 0.6 981.6 -2 92
2020-01-18 13:00:00 13.5 20 Sudoeste 38 Sudoeste 1.6 982.8 -0.8 92
2020-01-18 12:00:00 13.2 26 Sudoeste 36 Sudoeste 1 983.6 0.2 92
2020-01-18 11:00:00 12.6 21 Sudoeste 32 Sudoeste 1.2 983.6 -0.3 92
2020-01-18 10:00:00 12 15 Sudoeste 30 Sudoeste 1 983.6 -0.4 91
2020-01-18 09:00:00 11 13 Sudoeste 18 Sudoeste 1.4 983.4 -1.2 91
2020-01-18 08:00:00 9.8 3 Noroeste 14 Sudoeste 4.6 983.9 -0.5 89
2020-01-18 07:00:00 9 3 Sudeste 11 Este 0.8 984 -0.3 89
2020-01-18 06:00:00 8.5 3 Oeste 10 Oeste 0.2 984.6 -0.8 88
2020-01-18 05:00:00 10.4 8 Oeste 10 Oeste 0 984.4 -1.7 81
2020-01-18 04:00:00 8.1 5 Sudeste 12 Este 0 984.3 -2.5 90
2020-01-18 03:00:00 7.9 4 Este 8 Sur 0 985.4 -1.7 89
2020-01-18 02:00:00 8.3 6 Sur 12 Este 0 986.1 -1 89
2020-01-18 01:00:00 7.7 6 Este 10 Este 0 986.8 -0.2 89
2020-01-18 00:00:00 8.6 2 Noroeste 9 Nordeste 0 987.1 -0.3 88
2020-01-17 23:00:00 8.5 5 Sudeste 12 Este 0 987.1 -0.2 87
2020-01-17 22:00:00 9.7 9 Nordeste 11 Nordeste 0 987 0.3 85
2020-01-17 21:00:00 10.7 4 Este 12 Este 0 987.4 1.1 78
2020-01-17 20:00:00 12 5 Norte 14 Oeste 0 987.3 0.9 72
2020-01-17 19:00:00 13 9 Noroeste 11 Noroeste 0 986.7 0.7 69
2020-01-17 18:00:00 14.5 6 Oeste 18 Oeste 0 986.3 0 63
2020-01-17 17:00:00 16.1 5 Sudoeste 12 Sur 0 986.4 -0.4 59
2020-01-17 16:00:00 16.1 4 Sudeste 14 Sudeste 0 986 -1.7 62
2020-01-17 15:00:00 15.5 7 Sudeste 10 Sudeste 0 986.3 -2.1 63
2020-01-17 14:00:00 15.3 3 Sur 10 Oeste 0 986.8 -1.2 67
2020-01-17 13:00:00 13 6 Sudeste 10 Sudeste 0 987.7 0.3 75
2020-01-17 12:00:00 11.9 4 Sudoeste 9 Sudoeste 0 988.4 1.5 78
2020-01-17 11:00:00 11.6 5 Oeste 10 Oeste 0 988 1.9 83
2020-01-17 10:00:00 10 5 Noroeste 12 Sudoeste 0 987.4 2.3 90
2020-01-17 09:00:00 9.7 3 Sudoeste 9 Oeste 0 986.9 2.3 92
2020-01-17 08:00:00 9.8 5 Sudoeste 18 Oeste 0 986.1 1.8 92
2020-01-17 07:00:00 9.9 13 Oeste 19 Oeste 0 985.1 1 92
2020-01-17 06:00:00 10.2 8 Sudoeste 16 Oeste 0 984.6 0.9 91
2020-01-17 05:00:00 11.1 9 Sudoeste 22 Sudoeste 0 984.3 0.9 90
2020-01-17 04:00:00 11.8 15 Oeste 21 Oeste 0 984.1 0.6 90
2020-01-17 03:00:00 12 16 Oeste 26 Sudoeste 0 983.7 0.6 90
2020-01-17 02:00:00 11.6 10 Sudoeste 19 Sudoeste 0.4 983.4 0.4 91
2020-01-17 01:00:00 11.6 16 Sudoeste 28 Sudoeste 0.4 983.5 0.9 90
2020-01-17 00:00:00 11.9 17 Sudoeste 39 Sudoeste 0.8 983.1 0.8 84
2020-01-16 23:00:00 12.6 14 Sudoeste 26 Sur 0 983 0.9 75
2020-01-16 22:00:00 12.2 14 Sudoeste 28 Sur 0 982.6 1.1 73
2020-01-16 21:00:00 11.7 10 Sudoeste 21 Sur 0 982.3 1 66
2020-01-16 20:00:00 12 5 Sudoeste 23 Sur 0 982.1 1.2 58
2020-01-16 19:00:00 12.6 10 Sudoeste 21 Sudoeste 0 981.5 0.8 53
2020-01-16 18:00:00 13.6 14 Sudoeste 35 Sur 0 981.3 0.5 50
2020-01-16 17:00:00 15.2 24 Sudoeste 44 Sudoeste 0 980.9 -0.6 41
2020-01-16 16:00:00 16.4 25 Sudoeste 41 Sudoeste 0 980.7 -1.8 38
2020-01-16 15:00:00 16.8 25 Sudoeste 37 Sur 0 980.8 -2.1 38
2020-01-16 14:00:00 16.3 30 Sudoeste 43 Sudoeste 0 981.5 -1.4 43
2020-01-16 13:00:00 15.6 12 Sudoeste 18 Sur 0 982.5 0.1 58
2020-01-16 12:00:00 13.1 6 Este 11 Nordeste 0 982.9 0.5 74
2020-01-16 11:00:00 10.7 7 Este 13 Nordeste 0 982.9 1.3 81
2020-01-16 10:00:00 8.3 10 Nordeste 14 Nordeste 0 982.4 0.9 89
2020-01-16 09:00:00 8 5 Este 15 Nordeste 0 982.4 1 88
2020-01-16 08:00:00 8.4 8 Nordeste 17 Nordeste 0 981.6 0.1 89
2020-01-16 07:00:00 6.3 8 Este 12 Este 0 981.5 0 87
2020-01-16 06:00:00 8.8 4 Este 8 Nordeste 0 981.4 -0.1 87
2020-01-16 05:00:00 9.7 4 Nordeste 9 Este 0 981.5 -0.1 84
2020-01-16 04:00:00 10.2 5 Este 10 Sur 0 981.5 -0.3 87
2020-01-16 03:00:00 11.4 2 Nordeste 4 Este 0 981.5 -0.5 84
2020-01-16 02:00:00 11.8 4 Sur 10 Sudeste 0 981.6 -0.4 83
2020-01-16 01:00:00 12.2 4 Sudeste 10 Sur 0 981.8 0.2 83
2020-01-16 00:00:00 12.1 5 Sudeste 13 Sur 0 982 0.7 82
2020-01-15 23:00:00 12.4 3 Este 9 Nordeste 0 982 0.7 82
2020-01-15 22:00:00 12.5 5 Nordeste 10 Este 0 981.6 0.8 82
2020-01-15 21:00:00 12.5 3 Este 13 Sudeste 0 981.3 0.9 81
2020-01-15 20:00:00 12.8 3 Este 9 Nordeste 0 981.3 1.1 80
2020-01-15 19:00:00 13 2 Oeste 13 Sur 0 980.8 1.2 80
2020-01-15 18:00:00 13.7 10 Sur 23 Sur 0 980.4 1.1 78
2020-01-15 17:00:00 13.8 10 Sur 27 Sudoeste 0 980.2 0.7 78
2020-01-15 16:00:00 13.8 21 Sur 40 Sur 0 979.6 -0.3 79
2020-01-15 15:00:00 15 25 Sur 39 Sudoeste 0 979.3 -1 72
2020-01-15 14:00:00 14.3 26 Sudoeste 41 Sudoeste 0 979.5 -0.4 74
2020-01-15 13:00:00 14.3 27 Sudoeste 44 Sudoeste 0 979.9 0.9 70
2020-01-15 12:00:00 14.2 24 Sudoeste 36 Sur 0 980.3 1.8 72
2020-01-15 11:00:00 13.3 20 Sudoeste 33 Sudoeste 0 979.9 1.6 75
2020-01-15 10:00:00 12.4 12 Sudoeste 23 Sur 0 979 1.4 77
2020-01-15 09:00:00 10.8 5 Sudoeste 21 Sur 0 978.5 1.2 78
2020-01-15 08:00:00 10.8 12 Sur 27 Sur 0 978.3 1 78
2020-01-15 07:00:00 10.4 10 Sur 25 Sudoeste 0 977.6 0.1 77
2020-01-15 06:00:00 10.2 11 Sur 26 Sur 0 977.3 -0.4 75
2020-01-15 05:00:00 10 11 Sudoeste 24 Sur 0 977.3 -0.6 73
2020-01-15 04:00:00 10.3 9 Sur 17 Sur 0 977.5 -0.6 69
2020-01-15 03:00:00 9.8 7 Sudeste 19 Sur 0 977.7 -0.6 71
2020-01-15 02:00:00 9.4 5 Este 23 Sudeste 0 977.9 -0.4 75
2020-01-15 01:00:00 9.7 4 Este 16 Sudeste 0 978.1 -0.2 74
2020-01-15 00:00:00 10.2 8 Sudeste 18 Sur 0 978.3 0.1 73
2020-01-14 23:00:00 10 10 Sur 25 Sur 0 978.3 0.2 75
2020-01-14 22:00:00 10.3 15 Sur 30 Sur 0 978.3 0.4 76
2020-01-14 21:00:00 9.9 10 Sudoeste 21 Sur 0 978.2 0.6 77
2020-01-14 20:00:00 10 9 Sudoeste 27 Sur 0 978.1 0.6 75
2020-01-14 19:00:00 10.7 16 Sur 22 Sur 0 977.9 0.5 71
2020-01-14 18:00:00 11 7 Sur 17 Sur 0 977.6 0.2 70
2020-01-14 17:00:00 10.8 2 Sur 8 Este 0 977.5 -0.6 74
2020-01-14 16:00:00 10.6 3 Nordeste 6 Nordeste 0 977.4 -1.5 75
2020-01-14 15:00:00 9.5 3 Norte 6 Oeste 0 977.4 -2.3 77
2020-01-14 14:00:00 8.4 0 Calma 7 Sudoeste 0 978.1 -1.5 78
2020-01-14 13:00:00 7.6 3 Sudeste 12 Este 0 978.9 -0.3 78
2020-01-14 12:00:00 5.9 5 Este 10 Este 0 979.7 1.2 82
2020-01-14 11:00:00 2.6 7 Este 13 Este 0 979.6 1.2 90
2020-01-14 10:00:00 1.3 6 Este 11 Sudoeste 0 979.2 1 91
2020-01-14 09:00:00 0 5 Sudeste 8 Sudeste 0 978.5 0.2 93
2020-01-14 08:00:00 -0.1 7 Este 9 Este 0 978.4 -0.1 92
2020-01-14 07:00:00 0 4 Sur 17 Este 0 978.2 -0.4 92
2020-01-14 06:00:00 0.2 11 Este 14 Este 0 978.3 -0.7 92
2020-01-14 05:00:00 0.3 6 Este 9 Este 0 978.5 -0.8 90
2020-01-14 04:00:00 1.5 5 Este 10 Este 0 978.6 -1.1 90
2020-01-14 03:00:00 1.3 4 Este 9 Este 0 979 -1.1 90
2020-01-14 02:00:00 2.2 3 Sudoeste 7 Este 0 979.3 -0.8 88
2020-01-14 01:00:00 2.1 4 Sudeste 9 Sudeste 0 979.7 -0.3 87
2020-01-14 00:00:00 4 5 Este 7 Este 0 980.1 0.2 85
2020-01-13 23:00:00 5 6 Nordeste 9 Nordeste 0 980.1 0.3 80
2020-01-13 22:00:00 5.2 6 Este 8 Este 0 980 0.4 78
2020-01-13 21:00:00 7.2 4 Oeste 8 Sur 0 979.9 0.3 70
2020-01-13 20:00:00 8.6 5 Oeste 8 Sudoeste 0 979.8 0.1 63
2020-01-13 19:00:00 10.1 6 Oeste 14 Sudoeste 0 979.6 -0.2 57
2020-01-13 18:00:00 11.8 12 Sudoeste 21 Sudoeste 0 979.6 -0.4 54
2020-01-13 17:00:00 13.6 14 Sudoeste 24 Sudoeste 0 979.7 -1.1 47
2020-01-13 16:00:00 13 16 Oeste 28 Sudoeste 0 979.8 -2.2 49
2020-01-13 15:00:00 13.7 17 Sudoeste 29 Sudoeste 0 980 -2.8 50
2020-01-13 14:00:00 12.6 12 Sudoeste 17 Sudoeste 0 980.8 -1.8 54
2020-01-13 13:00:00 9.8 2 Sudoeste 9 Este 0 982 -0.3 66
2020-01-13 12:00:00 5.8 7 Este 11 Este 0 982.8 0.9 75
2020-01-13 11:00:00 2.9 2 Este 12 Este 0 982.6 0.8 84
2020-01-13 10:00:00 0 7 Este 12 Este 0 982.3 0.5 89
2020-01-13 09:00:00 0.2 2 Este 12 Este 0 981.9 0.4 89
2020-01-13 08:00:00 -0.4 5 Nordeste 7 Nordeste 0 981.8 -0.3 90
2020-01-13 07:00:00 -0.6 0 Calma 8 Sudeste 0 981.8 -0.7 90
2020-01-13 06:00:00 -1 6 Este 8 Sudeste 0 981.5 -1.4 89
2020-01-13 05:00:00 0.5 5 Este 10 Este 0 982.1 -1 87
2020-01-13 04:00:00 0.1 3 Sur 6 Sudoeste 0 982.5 -1.4 87
2020-01-13 03:00:00 0.6 5 Sur 8 Sudeste 0 982.9 -1.4 86
2020-01-13 02:00:00 1.7 5 Sudeste 7 Este 0 983.1 -1.2 82
2020-01-13 01:00:00 2.3 4 Sudoeste 5 Sudoeste 0 983.9 -0.7 83
2020-01-13 00:00:00 3.5 3 Sudeste 8 Este 0 984.3 -0.1 80
2020-01-12 23:00:00 4 4 Nordeste 11 Este 0 984.3 -0.4 79
2020-01-12 22:00:00 4.7 8 Este 11 Sudeste 0 984.6 0.3 75
2020-01-12 21:00:00 7.4 6 Este 10 Este 0 984.4 0.5 66
2020-01-12 20:00:00 9.3 6 Este 13 Nordeste 0 984.7 1 58
2020-01-12 19:00:00 10.7 8 Norte 13 Norte 0 984.3 0.6 49
2020-01-12 18:00:00 12.5 9 Oeste 20 Oeste 0 983.9 -0.1 48
2020-01-12 17:00:00 14.2 16 Oeste 22 Sudoeste 0 983.7 -1.1 44
2020-01-12 16:00:00 14.7 16 Oeste 24 Sudoeste 0 983.7 -2.2 41
2020-01-12 15:00:00 15.1 14 Sudoeste 21 Sudoeste 0 984 -2.9 43
2020-01-12 14:00:00 14.2 6 Sur 9 Sur 0 984.8 -2.2 41
2020-01-12 13:00:00 11.4 2 Este 6 Este 0 985.9 -0.6 63
2020-01-12 12:00:00 7.1 5 Este 9 Este 0 986.9 0.9 74
2020-01-12 11:00:00 4 4 Este 9 Este 0 987 1 83
2020-01-12 10:00:00 1.4 5 Sudeste 8 Este 0 986.5 0.7 89
2020-01-12 09:00:00 -0.2 3 Sur 8 Sudeste 0 986 0.5 91
2020-01-12 08:00:00 0 4 Sur 9 Este 0 986 0.2 90
2020-01-12 07:00:00 0.8 5 Este 9 Este 0 985.8 -0.2 89
2020-01-12 06:00:00 1.3 6 Este 9 Este 0 985.5 -0.3 89
2020-01-12 05:00:00 1 4 Sur 6 Sudeste 0 985.8 0.1 88
2020-01-12 04:00:00 1.6 4 Sur 11 Este 0 986 0.1 86
2020-01-12 03:00:00 2.3 6 Nordeste 10 Este 0 985.8 -0.3 85
2020-01-12 02:00:00 3 5 Sudeste 9 Este 0 985.7 -0.4 82
2020-01-12 01:00:00 3.9 4 Sudoeste 14 Nordeste 0 985.9 0.1 77
2020-01-12 00:00:00 6.4 9 Nordeste 16 Nordeste 0 986.1 0.5 69
2020-01-11 23:00:00 7.2 9 Este 17 Nordeste 0 986.1 0.8 67
2020-01-11 22:00:00 7.1 11 Nordeste 19 Este 0 985.8 0.9 66
2020-01-11 21:00:00 7.2 13 Este 17 Este 0 985.6 1.3 66
2020-01-11 20:00:00 8.9 9 Este 18 Norte 0 985.3 1.5 59
2020-01-11 19:00:00 10.9 13 Norte 20 Norte 0 984.9 1.1 50
2020-01-11 18:00:00 11.7 14 Nordeste 26 Nordeste 0 984.3 0.2 47
2020-01-11 17:00:00 12.8 19 Nordeste 26 Este 0 983.8 -1.2 45
2020-01-11 16:00:00 12.8 16 Nordeste 28 Nordeste 0 983.8 -2 45
2020-01-11 15:00:00 12.6 21 Este 31 Nordeste 0 984.1 -2.4 47
2020-01-11 14:00:00 11.7 17 Este 25 Este 0 985 -1.4 52
2020-01-11 13:00:00 10.1 18 Este 24 Este 0 985.8 0.2 57
2020-01-11 12:00:00 8.6 17 Este 21 Este 0 986.5 1.3 61
2020-01-11 11:00:00 5.6 12 Nordeste 17 Nordeste 0 986.4 1.3 72
2020-01-11 10:00:00 3.1 11 Este 17 Este 0 985.6 0.9 82
2020-01-11 09:00:00 1.6 7 Este 15 Nordeste 0 985.2 0.7 86
2020-01-11 08:00:00 1.4 9 Este 14 Este 0 985.1 0.4 87
2020-01-11 07:00:00 1.8 10 Este 14 Este 0 984.7 0 88
2020-01-11 06:00:00 1.9 10 Este 13 Este 0 984.5 -0.3 90
2020-01-11 05:00:00 2.8 5 Nordeste 9 Nordeste 0 984.7 0.1 89
2020-01-11 04:00:00 3.7 4 Este 7 Nordeste 0 984.7 0.1 87
2020-01-11 03:00:00 4 5 Este 7 Este 0 984.8 0 85
2020-01-11 02:00:00 5.5 3 Norte 6 Noroeste 0 984.6 0.1 80
2020-01-11 01:00:00 5.2 0 Calma 6 Sur 0 984.6 0.5 83
2020-01-11 00:00:00 6 4 Sudoeste 6 Sudoeste 0 984.8 1 79
2020-01-10 23:00:00 6.6 2 Sur 8 Este 0 984.5 0.9 76
2020-01-10 22:00:00 7.3 5 Este 10 Sudeste 0 984.1 1.4 73
2020-01-10 21:00:00 8.3 3 Sudeste 22 Norte 0 983.8 1.7 69
2020-01-10 20:00:00 9.6 18 Norte 32 Norte 0 983.6 2.1 65
2020-01-10 19:00:00 9.8 24 Norte 33 Norte 0 982.7 0.9 61
2020-01-10 18:00:00 10.7 15 Norte 29 Nordeste 0 982.1 0.5 59
2020-01-10 17:00:00 11.5 23 Nordeste 33 Nordeste 0 981.5 -0.6 56
2020-01-10 16:00:00 11.8 21 Nordeste 31 Nordeste 0 981.8 -1 56
2020-01-10 15:00:00 11 12 Este 36 Este 0 981.6 -1.7 60
2020-01-10 14:00:00 10.7 23 Nordeste 30 Este 0 982.1 -1.2 62
2020-01-10 13:00:00 10 13 Nordeste 26 Norte 0 982.8 -0.5 59
2020-01-10 12:00:00 9 19 Nordeste 38 Nordeste 0 983.3 0.6 61
2020-01-10 11:00:00 8.5 14 Norte 28 Norte 0 983.3 0.8 63
2020-01-10 10:00:00 5.9 4 Sur 12 Sudoeste 0 983.3 1.4 75
2020-01-10 09:00:00 5 5 Norte 14 Noroeste 0 982.7 0.9 75
2020-01-10 08:00:00 6 10 Norte 20 Norte 0 982.5 0.6 71
2020-01-10 07:00:00 6.1 11 Norte 31 Norte 0 981.9 -0.4 76
2020-01-10 06:00:00 7 22 Norte 31 Norte 0 981.8 -0.6 75
2020-01-10 05:00:00 7.2 15 Noroeste 27 Noroeste 0 981.9 -0.5 79
2020-01-10 04:00:00 6.8 13 Oeste 19 Oeste 0 982.3 -0.5 88
2020-01-10 03:00:00 7.4 14 Oeste 18 Oeste 0 982.4 -0.6 89
2020-01-10 02:00:00 8.5 11 Oeste 22 Oeste 0 982.4 -0.6 88
2020-01-10 01:00:00 10 17 Oeste 28 Oeste 0 982.8 -0.3 88
2020-01-10 00:00:00 9.4 11 Sudoeste 16 Sudoeste 0 983 -0.1 83
2020-01-09 23:00:00 10.3 10 Oeste 13 Oeste 0 983 0 81
2020-01-09 22:00:00 9.9 7 Oeste 9 Oeste 0 983.1 0.6 79
2020-01-09 21:00:00 10 6 Sudoeste 10 Sudoeste 0 983.1 0.9 76
2020-01-09 20:00:00 10 6 Sudoeste 20 Oeste 0 983 1.3 75
2020-01-09 19:00:00 10.8 10 Sudoeste 23 Oeste 0 982.5 1 70
2020-01-09 18:00:00 12.9 16 Oeste 23 Oeste 0 982.2 0.6 64
2020-01-09 17:00:00 14.6 18 Sudoeste 24 Sudoeste 0 981.7 -0.6 55
2020-01-09 16:00:00 15 13 Sudoeste 24 Sudoeste 0 981.5 -1.7 58
2020-01-09 15:00:00 14.3 12 Sur 18 Sudoeste 0 981.6 -2.1 62
2020-01-09 14:00:00 13.2 12 Sur 17 Sudoeste 0 982.3 -1.3 65
2020-01-09 13:00:00 10.9 5 Sudoeste 8 Sudoeste 0 983.2 -0.2 71
2020-01-09 12:00:00 6.9 4 Nordeste 10 Este 0 983.7 0.9 82
2020-01-09 11:00:00 5.1 3 Norte 10 Este 0 983.6 1.2 86
2020-01-09 10:00:00 2 6 Nordeste 8 Este 0 983.4 1.4 92
2020-01-09 09:00:00 0.4 5 Oeste 8 Este 0 982.8 0.7 92
2020-01-09 08:00:00 0.2 5 Sur 9 Sudeste 0 982.4 0.2 92
2020-01-09 07:00:00 1.6 6 Este 10 Nordeste 0 982 -0.5 91
2020-01-09 06:00:00 1.1 5 Este 7 Sudoeste 0 982.1 -0.7 91
2020-01-09 05:00:00 1.7 4 Sudoeste 9 Este 0 982.2 -0.6 90
2020-01-09 04:00:00 2 4 Este 14 Este 0 982.5 -0.5 90
2020-01-09 03:00:00 2.5 5 Este 11 Este 0 982.8 -0.4 89
2020-01-09 02:00:00 4.2 4 Este 12 Nordeste 0 982.8 -0.5 87
2020-01-09 01:00:00 3.9 9 Este 11 Este 0 983 -0.2 87
2020-01-09 00:00:00 5.7 0 Calma 5 Este 0 983.2 0.2 84
2020-01-08 23:00:00 6.3 5 Este 8 Este 0 983.3 0.3 85
2020-01-08 22:00:00 8.3 4 Norte 6 Norte 0 983.2 0.5 80
2020-01-08 21:00:00 9.1 4 Nordeste 6 Sudoeste 0 983 0.5 76
2020-01-08 20:00:00 11.2 4 Oeste 13 Sudoeste 0 983 0.7 71
2020-01-08 19:00:00 12.8 11 Sudoeste 14 Sudoeste 0 982.7 0.5 67
2020-01-08 18:00:00 15.4 12 Sudoeste 15 Sudoeste 0 982.5 0.2 55
2020-01-08 17:00:00 16.8 14 Sudoeste 17 Sudoeste 0 982.3 -0.7 51
2020-01-08 16:00:00 17.9 10 Sudoeste 14 Sudoeste 0 982.2 -1.6 41
2020-01-08 15:00:00 17.6 5 Sudoeste 8 Sudoeste 0 982.3 -2.5 28
2020-01-08 14:00:00 15.2 3 Este 8 Este 0 983 -2 54
2020-01-08 13:00:00 12.1 4 Nordeste 7 Nordeste 0 983.8 -0.8 64
2020-01-08 12:00:00 8.6 4 Este 9 Este 0 984.8 0.7 73
2020-01-08 11:00:00 5 7 Este 10 Este 0 985 1.1 78
2020-01-08 10:00:00 3.2 4 Este 7 Este 0 984.6 0.9 80
2020-01-08 09:00:00 1.6 2 Sudeste 10 Este 0 984.1 0.3 86
2020-01-08 08:00:00 1.2 3 Sur 7 Este 0 983.9 -0.2 87
2020-01-08 07:00:00 1.9 4 Este 8 Sudeste 0 983.7 -0.7 86
2020-01-08 06:00:00 1.9 7 Este 9 Este 0 983.8 -0.6 87
2020-01-08 05:00:00 2.6 3 Sur 10 Este 0 984.1 -0.4 86
2020-01-08 04:00:00 2.9 3 Sudeste 9 Este 0 984.4 -0.5 87
2020-01-08 03:00:00 3.8 4 Sudoeste 8 Este 0 984.4 -1 86
2020-01-08 02:00:00 4.7 2 Sudeste 13 Este 0 984.5 -1.1 85
2020-01-08 01:00:00 4.9 6 Este 10 Este 0 984.9 -0.7 85
2020-01-08 00:00:00 6 2 Sudeste 9 Este 0 985.4 0 82
2020-01-07 23:00:00 7.1 2 Sur 8 Este 0 985.6 0.3 78
2020-01-07 22:00:00 8 4 Este 14 Este 0 985.6 0.6 74
2020-01-07 21:00:00 8.9 6 Este 10 Este 0 985.4 0.7 73
2020-01-07 20:00:00 12.1 5 Este 10 Sudeste 0 985.3 0.7 56
2020-01-07 19:00:00 14.8 5 Nordeste 9 Nordeste 0 985 0.4 48
2020-01-07 18:00:00 16.2 5 Nordeste 8 Este 0 984.7 -0.1 45
2020-01-07 17:00:00 17.4 6 Este 11 Sudeste 0 984.6 -0.8 43
2020-01-07 16:00:00 17.5 5 Sudeste 8 Este 0 984.6 -1.6 47
2020-01-07 15:00:00 17.2 3 Sudeste 13 Este 0 984.8 -1.9 46
2020-01-07 14:00:00 14.7 11 Este 19 Este 0 985.4 -1.5 55
2020-01-07 13:00:00 12.7 15 Este 18 Este 0 986.2 -0.1 57
2020-01-07 12:00:00 9 7 Este 17 Este 0 986.7 0.9 74
2020-01-07 11:00:00 6.5 8 Sudeste 21 Nordeste 0 986.9 1.1 81
2020-01-07 10:00:00 4 14 Este 22 Este 0 986.3 0.8 87
2020-01-07 09:00:00 2.7 10 Este 17 Este 0 985.8 0.3 91
2020-01-07 08:00:00 2.4 9 Este 17 Este 0 985.8 0.4 88
2020-01-07 07:00:00 3.1 9 Este 15 Este 0 985.5 0.1 87
2020-01-07 06:00:00 2.2 7 Este 14 Este 0 985.5 0.5 90
2020-01-07 05:00:00 3.9 10 Este 17 Este 0 985.4 0.4 89
2020-01-07 04:00:00 3.6 8 Este 10 Este 0 985.4 0 87
2020-01-07 03:00:00 5.1 5 Nordeste 17 Este 0 985 -0.3 87
2020-01-07 02:00:00 4.1 6 Este 14 Este 0 985 -0.4 85
2020-01-07 01:00:00 7 11 Nordeste 16 Nordeste 0 985.4 0.2 78
2020-01-07 00:00:00 6.9 10 Este 19 Nordeste 0 985.3 0.4 80
2020-01-06 23:00:00 7.7 11 Nordeste 19 Nordeste 0 985.4 1.1 80
2020-01-06 22:00:00 7.6 9 Este 14 Este 0 985.2 1.7 80
2020-01-06 21:00:00 8.6 7 Este 10 Sudeste 0 984.9 1.8 74
2020-01-06 20:00:00 10.5 9 Este 12 Sudeste 0 984.3 1.5 66
2020-01-06 19:00:00 11.8 9 Este 23 Norte 0 983.5 1 67
2020-01-06 18:00:00 14.9 5 Sudoeste 8 Oeste 0 983.1 0.7 49
2020-01-06 17:00:00 15.9 0 Calma 6 Sudeste 0 982.8 -0.2 44
2020-01-06 16:00:00 16.2 4 Este 8 Este 0 982.5 -1.6 43
2020-01-06 15:00:00 15.3 6 Este 13 Este 0 982.4 -2.7 50
2020-01-06 14:00:00 14.2 8 Este 12 Sudeste 0 983 -2.3 55
2020-01-06 13:00:00 11.8 6 Este 12 Este 0 984.1 -0.5 68
2020-01-06 12:00:00 9 7 Este 12 Este 0 985.1 1.1 76
2020-01-06 11:00:00 5.3 7 Este 14 Este 0 985.3 1.9 87
2020-01-06 10:00:00 2.8 11 Este 14 Este 0 984.6 2.1 92